This is the latest recevied weather packets stored in our database for station/object XE2CT-20. If no packets are shown the sender has not sent any weather packets the latest 10 day(s).
| Time | Temp. | Humidity | Pressure | Rain* | Wind** | Luminosity | Snow |
|---|---|---|---|---|---|---|---|
| 1777970635 | 26.67° C | 63% | 1014 hPa | - | - | - | - |
| 1777969734 | 26.67° C | 65% | 1016 hPa | - | - | - | - |
| 1777968833 | 26.67° C | 66% | 1016 hPa | - | - | - | - |
| 1777967932 | 26.67° C | 66% | 1016 hPa | - | - | - | - |
| 1777967031 | 27.22° C | 64% | 1016 hPa | - | - | - | - |
| 1777966130 | 27.22° C | 64% | 1016 hPa | - | - | - | - |
| 1777965229 | 27.22° C | 64% | 1016 hPa | - | - | - | - |
| 1777964327 | 27.22° C | 65% | 1017 hPa | - | - | - | - |
| 1777963425 | 27.78° C | 62% | 1016 hPa | - | - | - | - |
| 1777962525 | 27.78° C | 62% | 1016 hPa | - | - | - | - |
| 1777961623 | 27.78° C | 62% | 1017 hPa | - | - | - | - |
| 1777960722 | 27.78° C | 60% | 1016 hPa | - | - | - | - |
| 1777959821 | 28.89° C | 58% | 1015 hPa | - | - | - | - |
| 1777958920 | 28.89° C | 57% | 1015 hPa | - | - | - | - |
| 1777958019 | 28.33° C | 58% | 1016 hPa | - | - | - | - |
| 1777957118 | 28.89° C | 57% | 1015 hPa | - | - | - | - |
| 1777956217 | 28.89° C | 57% | 1015 hPa | - | - | - | - |
| 1777955316 | 28.89° C | 58% | 1016 hPa | - | - | - | - |
| 1777954415 | 28.89° C | 58% | 1016 hPa | - | - | - | - |
| 1777953514 | 28.33° C | 58% | 1016 hPa | - | - | - | - |
| 1777952613 | 28.33° C | 58% | 1016 hPa | - | - | - | - |
| 1777951712 | 28.89° C | 57% | 1016 hPa | - | - | - | - |
| 1777950811 | 29.44° C | 55% | 1015 hPa | - | - | - | - |
| 1777949910 | 29.44° C | 55% | 1015 hPa | - | - | - | - |
| 1777949009 | 30° C | 53% | 1014 hPa | - | - | - | - |
* Rain since midnight (hover to see other rain measurements)
** Current wind speed in m/s (hover to see current wind gust speed)